Latest Weather Observations for Snowtown

IDS60801

Issued at 6:32 am CDT Monday 26 January 2015 (issued every 30 minutes, with the page automatically refreshed every 10 minutes)

About weather observations | Map of weather stations | Latest weather observations for SA | Other Formats
Station Details ID: 021133 Name: RAYVILLE PARK Lat: -33.77 Lon: 138.22 Height: 109.1 m
Data from the previous 72 hours. | See also: Recent months at Snowtown
Date/Time
CDT
Temp
°C
App
Temp
°C
Dew
Point
Rel
Hum
%
Delta-T
°C
Wind Press
QNH
hPa
Press
MSL
hPa
Rain
since 9 am
mm
Dir
 
Spd
km/h
Gust
km/h
Spd
kts
Gust
kts
26/06:30am 12.9 10.9 6.9 67 2.9 S 7 9 4 5 1017.4 1016.9 0.0
26/06:00am 13.6 11.2 6.9 64 3.3 SW 9 11 5 6 1017.0 1016.5 0.0
26/05:30am 12.0 10.0 7.3 73 2.3 SW 7 9 4 5 1016.9 1016.4 0.0
26/05:00am 9.7 6.7 5.9 77 1.8 SW 11 13 6 7 1016.7 1016.2 0.0
26/04:30am 10.2 7.5 5.6 73 2.1 SSE 9 13 5 7 1016.6 1016.1 0.0
26/04:00am 12.2 11.1 6.7 69 2.6 SSE 2 6 1 3 1016.4 1015.9 0.0
26/03:30am 11.3 8.9 6.8 74 2.1 SSE 9 11 5 6 1016.1 1015.6 0.0
26/03:00am 10.5 7.9 5.9 73 2.1 SSE 9 11 5 6 1016.1 1015.6 0.0
26/02:30am 11.4 8.9 6.7 73 2.2 SSE 9 11 5 6 1016.2 1015.7 0.0
26/02:00am 11.0 8.9 5.7 70 2.5 SSE 6 9 3 5 1016.2 1015.7 0.0
26/01:30am 12.6 9.7 6.6 67 2.9 S 11 13 6 7 1016.1 1015.6 0.0
26/01:00am 12.8 10.7 6.8 67 2.9 SE 7 9 4 5 1016.4 1015.9 0.0
26/12:30am 13.5 11.1 6.8 64 3.2 SE 9 11 5 6 1016.6 1016.1 0.0
26/12:00am 15.1 12.4 7.2 59 3.9 S 11 13 6 7 1016.4 1015.9 0.0
 
Date/Time
CDT
Temp
°C
App
Temp
°C
Dew
Point
Rel
Hum
%
Delta-T
°C
Wind Press
QNH
hPa
Press
MSL
hPa
Rain
since 9 am
mm
Dir
 
Spd
km/h
Gust
km/h
Spd
kts
Gust
kts
25/11:30pm 15.5 12.8 7.3 58 4.1 S 11 13 6 7 1016.4 1015.9 0.0
25/11:00pm 16.2 13.2 7.7 57 4.3 SSE 13 20 7 11 1016.5 1016.0 0.0
25/10:30pm 15.3 13.0 7.6 60 3.8 S 9 13 5 7 1016.4 1015.9 0.0
25/10:00pm 16.1 13.1 7.8 58 4.2 S 13 17 7 9 1016.2 1015.7 0.0
25/09:30pm 16.4 13.8 7.6 56 4.4 S 11 15 6 8 1015.7 1015.2 0.0
25/09:00pm 17.2 13.3 7.3 52 5.0 SSE 17 20 9 11 1015.3 1014.8 0.0
25/08:30pm 17.6 13.1 6.8 49 5.4 SSE 20 26 11 14 1015.0 1014.5 0.0
25/08:00pm 18.6 12.8 6.4 45 6.1 SSE 26 33 14 18 1014.7 1014.2 0.0
25/07:30pm 20.1 14.6 5.7 39 7.2 S 24 33 13 18 1014.4 1013.9 0.0
25/07:00pm 20.6 14.7 5.8 38 7.4 S 26 41 14 22 1014.1 1013.6 0.0
25/06:30pm 21.0 15.3 6.5 39 7.4 S 26 41 14 22 1013.8 1013.3 0.0
25/06:00pm 21.3 15.2 6.4 38 7.6 SSW 28 43 15 23 1013.8 1013.3 0.0
25/05:32pm 22.1 16.0 6.7 37 7.9 SSW 28 46 15 25 1013.6 1013.1 0.0
25/05:30pm 22.9 17.3 7.0 36 8.3 SSW 26 46 14 25 1013.5 1013.0 0.0
25/05:00pm 23.0 17.8 7.1 36 8.3 S 24 41 13 22 1013.6 1013.1 0.0
25/04:30pm 23.0 16.8 6.3 34 8.6 SSW 28 43 15 23 1013.5 1013.0 0.0
25/04:00pm 23.1 16.9 6.0 33 8.7 SSW 28 41 15 22 1013.6 1013.1 0.0
25/03:30pm 22.6 16.5 4.6 31 8.9 SSW 26 37 14 20 1013.5 1013.0 0.0
25/03:03pm 23.2 16.9 5.6 32 8.9 S 28 48 15 26 1013.6 1013.1 0.0
25/03:00pm 22.9 16.5 5.3 32 8.8 SSW 28 41 15 22 1013.7 1013.2 0.0
25/02:30pm 22.9 16.1 5.3 32 8.8 S 30 43 16 23 1013.7 1013.2 0.0
25/02:04pm 22.7 16.2 4.7 31 8.9 SSW 28 48 15 26 1013.7 1013.2 0.0
25/02:00pm 22.9 16.5 5.3 32 8.9 S 28 43 15 23 1013.9 1013.4 0.0
25/01:30pm 22.4 16.5 5.8 34 8.4 S 26 37 14 20 1014.0 1013.5 0.0
25/01:00pm 21.6 15.1 4.7 33 8.3 S 28 41 15 22 1014.0 1013.5 0.0
25/12:30pm 21.9 16.2 4.9 33 8.4 S 24 37 13 20 1014.1 1013.6 0.0
25/12:00pm 21.5 15.3 4.1 32 8.5 S 26 37 14 20 1014.1 1013.6 0.0
25/11:30am 21.3 15.5 4.4 33 8.3 S 24 32 13 17 1014.3 1013.8 0.0
25/11:05am 20.1 13.0 3.8 34 7.8 S 30 46 16 25 1014.1 1013.6 0.0
25/11:00am 20.0 13.6 3.3 33 7.9 SSW 26 43 14 23 1014.0 1013.5 0.0
25/10:30am 19.1 12.6 4.8 39 6.9 SW 28 43 15 23 1014.1 1013.6 0.0
25/10:00am 17.9 12.3 5.5 44 6.0 SSW 24 33 13 18 1014.4 1013.9 0.0
25/09:30am 18.2 12.3 5.8 44 6.1 SW 26 37 14 20 1013.9 1013.4 0.0
25/09:00am 18.1 12.6 6.0 45 6.0 SSW 24 32 13 17 1013.9 1013.4 0.0
25/08:30am 16.9 12.5 7.5 54 4.7 SSW 20 32 11 17 1013.8 1013.3 0.0
25/08:00am 15.1 12.2 8.3 64 3.4 SSW 13 19 7 10 1013.6 1013.1 0.0
25/07:30am 13.0 11.2 7.9 71 2.5 SSW 7 9 4 5 1013.2 1012.7 0.0
25/07:00am 13.5 11.8 8.4 71 2.6 SW 7 9 4 5 1012.6 1012.2 0.0
25/06:30am 12.9 10.2 9.0 77 2.0 SW 13 15 7 8 1012.2 1011.8 0.0
25/06:00am 10.8 8.3 8.0 83 1.4 WSW 11 13 6 7 1011.7 1011.3 0.0
25/05:30am 11.2 9.1 8.2 82 1.5 SW 9 11 5 6 1011.3 1010.8 0.0
25/05:00am 12.9 11.1 9.4 79 1.8 SSW 9 15 5 8 1011.2 1010.7 0.0
25/04:30am 14.1 11.0 10.3 78 2.0 SSW 17 22 9 12 1011.3 1010.8 0.0
25/04:00am 14.7 11.4 10.9 78 2.0 SSW 19 20 10 11 1010.9 1010.4 0.0
25/03:30am 15.2 12.4 11.2 77 2.1 SSW 17 26 9 14 1010.9 1010.4 0.0
25/03:00am 15.5 13.6 11.7 78 2.1 SSW 13 19 7 10 1010.7 1010.2 0.0
25/02:30am 16.6 14.1 12.4 76 2.3 SSW 17 24 9 13 1010.7 1010.2 0.0
25/02:00am 17.2 14.3 12.9 76 2.4 SSW 20 33 11 18 1010.6 1010.1 0.0
25/01:30am 17.5 14.9 13.2 76 2.4 SSW 19 24 10 13 1010.6 1010.1 0.0
25/01:00am 17.5 15.2 13.0 75 2.5 SW 17 20 9 11 1010.7 1010.2 0.0
25/12:30am 17.4 14.4 12.7 74 2.6 SW 20 28 11 15 1010.7 1010.2 0.0
25/12:00am 17.5 15.8 12.6 73 2.7 SW 13 15 7 8 1010.9 1010.4 0.0
 
Date/Time
CDT
Temp
°C
App
Temp
°C
Dew
Point
Rel
Hum
%
Delta-T
°C
Wind Press
QNH
hPa
Press
MSL
hPa
Rain
since 9 am
mm
Dir
 
Spd
km/h
Gust
km/h
Spd
kts
Gust
kts
24/11:30pm 17.9 14.6 12.8 72 2.9 SW 22 33 12 18 1010.9 1010.4 0.0
24/11:00pm 17.5 15.4 12.4 72 2.8 SW 15 19 8 10 1010.6 1010.1 0.0
24/10:30pm 18.3 16.3 12.7 70 3.1 SW 15 20 8 11 1010.2 1009.7 0.0
24/10:00pm 19.0 16.2 12.7 67 3.6 SW 19 24 10 13 1009.9 1009.4 0.0
24/09:30pm 19.5 17.0 12.3 63 4.0 SW 17 24 9 13 1009.6 1009.1 0.0
24/09:00pm 19.7 17.3 11.5 59 4.5 SW 15 19 8 10 1009.2 1008.7 0.0
24/08:30pm 20.7 16.6 11.6 56 5.1 SW 24 37 13 20 1008.7 1008.2 0.0
24/08:00pm 22.2 17.7 11.3 50 6.1 SW 26 35 14 19 1008.3 1007.8 0.0
24/07:30pm 23.5 17.9 10.2 43 7.4 SW 30 41 16 22 1007.9 1007.4 0.0
24/07:00pm 24.3 18.3 10.2 41 7.8 SW 32 41 17 22 1007.5 1007.0 0.0
24/06:30pm 24.7 18.7 10.9 42 7.8 SW 33 43 18 23 1007.2 1006.7 0.0
24/06:04pm 25.9 20.0 10.5 38 8.6 SW 32 50 17 27 1007.0 1006.5 0.0
24/06:00pm 25.6 19.4 10.2 38 8.6 SW 33 43 18 23 1006.9 1006.4 0.0
24/05:30pm 26.4 20.2 9.3 34 9.5 SW 32 46 17 25 1006.9 1006.4 0.0
24/05:01pm 26.9 20.6 8.8 32 9.9 SW 32 54 17 29 1006.7 1006.2 0.0
24/05:00pm 26.8 20.9 9.2 33 9.7 WSW 30 39 16 21 1006.8 1006.3 0.0
24/04:30pm 26.7 20.4 9.1 33 9.7 WSW 32 50 17 27 1007.0 1006.5 0.0
24/04:00pm 26.8 19.9 8.7 32 9.9 WSW 35 46 19 25 1007.2 1006.7 0.0
24/03:30pm 26.4 19.5 7.4 30 10.2 WSW 33 52 18 28 1007.3 1006.8 0.0
24/03:00pm 26.9 21.0 7.4 29 10.5 WSW 28 41 15 22 1007.3 1006.8 0.0
24/02:30pm 26.9 21.5 7.9 30 10.3 SW 26 41 14 22 1007.2 1006.7 0.0
24/02:00pm 27.2 22.6 9.5 33 9.8 WSW 24 39 13 21 1007.4 1006.9 0.0
24/01:30pm 26.0 21.6 7.6 31 9.9 WSW 20 35 11 19 1007.6 1007.1 0.0
24/01:00pm 25.7 22.1 8.2 33 9.4 W 17 33 9 18 1007.8 1007.3 0.0
24/12:30pm 25.7 22.8 9.5 36 8.9 WSW 15 28 8 15 1008.1 1007.6 0.0
24/12:00pm 23.6 21.2 9.9 42 7.5 WSW 13 26 7 14 1008.4 1007.9 0.0
24/11:30am 22.7 19.7 10.8 47 6.6 WSW 17 30 9 16 1008.8 1008.3 0.0
24/11:00am 22.7 19.8 11.1 48 6.5 WSW 17 24 9 13 1009.1 1008.6 0.0
24/10:30am 21.1 18.6 11.2 53 5.5 SW 15 22 8 12 1009.2 1008.7 0.0
24/10:00am 20.2 17.8 11.4 57 4.9 SW 15 22 8 12 1009.4 1008.9 0.0
24/09:30am 20.3 18.3 11.5 57 4.9 SSW 13 19 7 10 1009.5 1009.0 0.0
24/09:00am 18.9 17.9 12.2 65 3.7 SW 9 17 5 9 1009.4 1008.9 0.0
24/08:30am 18.3 18.3 12.5 69 3.3 NE 4 7 2 4 1009.4 1008.9 0.0
24/08:00am 16.6 16.2 12.9 79 2.1 NNE 7 9 4 5 1009.2 1008.7 0.0
24/07:30am 13.9 13.1 12.8 93 0.6 N 9 9 5 5 1009.1 1008.6 0.0
24/07:00am 12.2 10.5 11.1 93 0.6 N 11 13 6 7 1009.0 1008.5 0.0
24/06:30am 12.7 12.1 11.6 93 0.6 N 6 7 3 4 1008.9 1008.4 0.0
24/06:00am 11.3 10.1 10.4 94 0.5 NNW 7 9 4 5 1008.9 1008.4 0.0
24/05:30am 11.4 10.2 10.3 93 0.6 NNW 7 9 4 5 1008.8 1008.3 0.0
24/05:00am 11.0 9.4 10.1 94 0.5 N 9 11 5 6 1008.7 1008.2 0.0
24/04:30am 11.3 9.7 10.2 93 0.6 NNE 9 11 5 6 1008.8 1008.3 0.0
24/04:00am 11.0 10.2 9.8 92 0.6 NE 4 9 2 5 1008.7 1008.2 0.0
24/03:30am 11.8 10.5 10.0 89 0.9 SW 7 9 4 5 1008.8 1008.3 0.0
24/03:00am 12.4 10.8 10.3 87 1.1 SW 9 11 5 6 1008.6 1008.1 0.0
24/02:30am 12.5 10.8 11.1 91 0.7 SW 11 13 6 7 1009.0 1008.5 0.0
24/02:00am 12.9 11.2 11.1 89 1.0 SW 11 11 6 6 1009.1 1008.6 0.0
24/01:30am 13.4 12.5 11.5 88 1.0 SSW 7 9 4 5 1009.5 1009.0 0.0
24/01:00am 13.9 13.1 11.6 86 1.2 SSW 7 7 4 4 1009.8 1009.3 0.0
24/12:30am 15.3 15.8 12.8 85 1.4 SSW 2 6 1 3 1009.8 1009.3 0.0
24/12:00am 15.8 15.5 13.3 85 1.4 SSW 7 7 4 4 1009.9 1009.4 0.0
 
Date/Time
CDT
Temp
°C
App
Temp
°C
Dew
Point
Rel
Hum
%
Delta-T
°C
Wind Press
QNH
hPa
Press
MSL
hPa
Rain
since 9 am
mm
Dir
 
Spd
km/h
Gust
km/h
Spd
kts
Gust
kts
23/11:30pm 16.0 15.3 13.1 83 1.6 SW 9 13 5 7 1010.0 1009.5 0.0
23/11:00pm 17.5 16.1 13.4 77 2.3 SSW 13 17 7 9 1010.1 1009.6 0.0
23/10:30pm 18.0 16.7 13.7 76 2.5 SSW 13 17 7 9 1009.9 1009.4 0.0
23/10:00pm 18.5 16.9 12.9 70 3.2 SSW 13 19 7 10 1009.5 1009.0 0.0
23/09:30pm 18.9 16.9 11.5 62 4.1 SSW 13 20 7 11 1009.2 1008.7 0.0
23/09:00pm 20.2 17.4 11.4 57 4.9 S 17 22 9 12 1008.8 1008.3 0.0
23/08:30pm 20.9 17.1 11.3 54 5.3 S 22 28 12 15 1008.8 1008.3 0.0
23/08:00pm 22.0 18.6 11.4 51 5.9 S 20 26 11 14 1008.8 1008.3 0.0
23/07:30pm 22.8 18.7 11.5 49 6.4 S 24 33 13 18 1008.4 1007.9 0.0
23/07:00pm 23.9 19.8 11.6 46 7.0 S 24 33 13 18 1008.3 1007.8 0.0
23/06:30pm 24.4 20.1 12.0 46 7.1 S 26 35 14 19 1008.0 1007.5 0.0
23/06:00pm 25.2 21.1 12.8 46 7.2 S 26 37 14 20 1007.7 1007.2 0.0
23/05:30pm 26.1 22.1 12.9 44 7.7 S 26 33 14 18 1007.6 1007.1 0.0
23/05:00pm 26.8 23.1 12.8 42 8.2 SSE 24 33 13 18 1007.5 1007.0 0.0
23/04:30pm 27.0 23.8 13.0 42 8.3 SSE 22 37 12 20 1007.7 1007.2 0.0
23/04:00pm 27.5 25.2 13.1 41 8.5 S 17 28 9 15 1007.9 1007.4 0.0
23/03:30pm 27.4 25.7 13.7 43 8.2 SSE 15 28 8 15 1008.2 1007.7 0.0
23/03:00pm 27.4 25.1 14.1 44 8.0 S 19 28 10 15 1008.3 1007.8 0.0
23/02:30pm 26.7 24.1 14.8 48 7.2 SSE 22 35 12 19 1008.7 1008.2 0.0
23/02:00pm 26.5 24.3 14.9 49 7.0 SSE 20 33 11 18 1008.9 1008.4 0.0
23/01:30pm 25.4 23.1 14.2 50 6.7 SW 19 30 10 16 1009.3 1008.8 0.0
23/01:00pm 26.1 23.4 14.6 49 6.9 S 22 35 12 19 1009.3 1008.8 0.0
23/12:30pm 25.3 22.2 14.4 50 6.5 S 24 37 13 20 1009.5 1009.0 0.0
23/12:00pm 25.0 20.8 9.7 38 8.4 S 22 33 12 18 1009.5 1009.0 0.0
23/11:30am 24.6 20.1 10.1 40 8.0 S 24 33 13 18 1009.7 1009.2 0.0
23/11:00am 24.3 20.9 11.3 44 7.3 SSW 20 30 11 16 1009.7 1009.2 0.0
23/10:30am 23.8 21.5 13.1 51 6.2 SSW 17 26 9 14 1009.8 1009.3 0.0
23/10:00am 22.3 20.8 15.4 65 4.1 SSW 17 24 9 13 1009.9 1009.4 0.0
23/09:30am 22.4 21.8 15.7 66 4.0 S 13 22 7 12 1009.8 1009.3 0.0
23/09:00am 20.8 20.2 15.6 72 3.1 S 13 24 7 13 1009.8 1009.3 0.0
23/08:30am 19.7 18.4 14.9 74 2.8 S 15 20 8 11 1009.7 1009.2 0.0
23/08:00am 19.1 17.4 14.6 75 2.6 S 17 20 9 11 1009.7 1009.2 0.0
23/07:30am 18.2 18.0 15.6 85 1.5 S 11 17 6 9 1009.6 1009.1 0.0
23/07:00am 17.4 16.9 14.9 85 1.5 SSW 11 15 6 8 1009.3 1008.8 0.0

Other Formats:

Comma delimited format used in spreadsheet applications
http://www.bom.gov.au/fwo/IDS60801/IDS60801.95670.axf

JavaScript Object Notation format (JSON) in row-major order
http://www.bom.gov.au/fwo/IDS60801/IDS60801.95670.json